sensor_id;sensor_type;location;lat;lon;timestamp;pressure;altitude;pressure_sealevel;temperature;humidity
29903;BME280;30288;50.514;9.678;2023-12-20T00:00:08;98545.78;;;4.06;100.00
29903;BME280;30288;50.514;9.678;2023-12-20T00:02:14;98552.44;;;4.07;100.00
29903;BME280;30288;50.514;9.678;2023-12-20T00:04:19;98548.25;;;4.09;100.00
29903;BME280;30288;50.514;9.678;2023-12-20T00:06:27;98545.75;;;4.09;100.00
29903;BME280;30288;50.514;9.678;2023-12-20T00:08:33;98541.63;;;4.08;100.00
29903;BME280;30288;50.514;9.678;2023-12-20T00:10:36;98539.94;;;4.09;100.00
29903;BME280;30288;50.514;9.678;2023-12-20T00:12:42;98545.75;;;4.09;100.00
29903;BME280;30288;50.514;9.678;2023-12-20T00:14:48;98547.44;;;4.07;100.00
29903;BME280;30288;50.514;9.678;2023-12-20T00:16:53;98544.13;;;4.08;100.00
29903;BME280;30288;50.514;9.678;2023-12-20T00:18:59;98537.44;;;4.09;100.00
29903;BME280;30288;50.514;9.678;2023-12-20T00:21:05;98542.44;;;4.10;100.00
29903;BME280;30288;50.514;9.678;2023-12-20T00:23:13;98535.78;;;4.09;100.00
29903;BME280;30288;50.514;9.678;2023-12-20T00:25:18;98529.16;;;4.11;100.00
29903;BME280;30288;50.514;9.678;2023-12-20T00:27:24;98522.50;;;4.10;100.00
29903;BME280;30288;50.514;9.678;2023-12-20T00:29:29;98530.78;;;4.15;100.00
29903;BME280;30288;50.514;9.678;2023-12-20T00:31:31;98526.63;;;4.16;100.00
29903;BME280;30288;50.514;9.678;2023-12-20T00:33:37;98534.91;;;4.19;100.00
29903;BME280;30288;50.514;9.678;2023-12-20T00:35:41;98526.59;;;4.20;100.00
29903;BME280;30288;50.514;9.678;2023-12-20T00:37:46;98520.78;;;4.21;100.00
29903;BME280;30288;50.514;9.678;2023-12-20T00:39:54;98529.13;;;4.17;100.00
29903;BME280;30288;50.514;9.678;2023-12-20T00:41:59;98524.13;;;4.17;100.00
29903;BME280;30288;50.514;9.678;2023-12-20T00:44:05;98529.09;;;4.20;100.00
29903;BME280;30288;50.514;9.678;2023-12-20T00:46:10;98528.25;;;4.23;100.00
29903;BME280;30288;50.514;9.678;2023-12-20T00:48:15;98525.78;;;4.21;100.00
29903;BME280;30288;50.514;9.678;2023-12-20T00:50:21;98525.78;;;4.21;100.00
29903;BME280;30288;50.514;9.678;2023-12-20T00:52:30;98519.09;;;4.23;100.00
29903;BME280;30288;50.514;9.678;2023-12-20T00:54:36;98527.41;;;4.25;100.00
29903;BME280;30288;50.514;9.678;2023-12-20T00:56:44;98524.09;;;4.26;100.00
29903;BME280;30288;50.514;9.678;2023-12-20T00:58:49;98520.75;;;4.27;100.00
29903;BME280;30288;50.514;9.678;2023-12-20T01:00:54;98517.44;;;4.25;100.00
29903;BME280;30288;50.514;9.678;2023-12-20T01:03:01;98520.75;;;4.24;100.00
29903;BME280;30288;50.514;9.678;2023-12-20T01:05:07;98514.13;;;4.26;100.00
29903;BME280;30288;50.514;9.678;2023-12-20T01:07:12;98513.28;;;4.27;100.00
29903;BME280;30288;50.514;9.678;2023-12-20T01:09:15;98516.59;;;4.25;100.00
29903;BME280;30288;50.514;9.678;2023-12-20T01:11:20;98514.13;;;4.26;100.00
29903;BME280;30288;50.514;9.678;2023-12-20T01:13:26;98510.75;;;4.29;100.00
29903;BME280;30288;50.514;9.678;2023-12-20T01:15:31;98510.78;;;4.27;100.00
29903;BME280;30288;50.514;9.678;2023-12-20T01:17:36;98505.81;;;4.27;100.00
29903;BME280;30288;50.514;9.678;2023-12-20T01:19:42;98505.81;;;4.27;100.00
29903;BME280;30288;50.514;9.678;2023-12-20T01:21:45;98495.84;;;4.27;100.00
29903;BME280;30288;50.514;9.678;2023-12-20T01:23:50;98499.13;;;4.29;100.00
29903;BME280;30288;50.514;9.678;2023-12-20T01:25:52;98505.81;;;4.27;100.00
29903;BME280;30288;50.514;9.678;2023-12-20T01:27:57;98509.13;;;4.26;100.00
29903;BME280;30288;50.514;9.678;2023-12-20T01:30:04;98509.13;;;4.26;100.00
29903;BME280;30288;50.514;9.678;2023-12-20T01:32:10;98504.09;;;4.31;100.00
29903;BME280;30288;50.514;9.678;2023-12-20T01:34:15;98491.69;;;4.23;100.00
29903;BME280;30288;50.514;9.678;2023-12-20T01:36:21;98500.81;;;4.24;100.00
29903;BME280;30288;50.514;9.678;2023-12-20T01:38:26;98500.00;;;4.24;100.00
29903;BME280;30288;50.514;9.678;2023-12-20T01:40:29;98493.34;;;4.26;100.00
29903;BME280;30288;50.514;9.678;2023-12-20T01:42:34;98492.50;;;4.25;100.00
29903;BME280;30288;50.514;9.678;2023-12-20T01:44:40;98492.53;;;4.22;100.00
29903;BME280;30288;50.514;9.678;2023-12-20T01:46:48;98490.88;;;4.21;100.00
29903;BME280;30288;50.514;9.678;2023-12-20T01:48:53;98493.38;;;4.21;100.00
29903;BME280;30288;50.514;9.678;2023-12-20T01:50:56;98487.56;;;4.22;100.00
29903;BME280;30288;50.514;9.678;2023-12-20T01:53:02;98485.06;;;4.22;100.00
29903;BME280;30288;50.514;9.678;2023-12-20T01:55:08;98486.69;;;4.23;100.00
29903;BME280;30288;50.514;9.678;2023-12-20T01:57:17;98485.91;;;4.21;100.00
29903;BME280;30288;50.514;9.678;2023-12-20T01:59:23;98487.56;;;4.22;100.00
29903;BME280;30288;50.514;9.678;2023-12-20T02:01:29;98485.06;;;4.22;100.00
29903;BME280;30288;50.514;9.678;2023-12-20T02:03:37;98490.84;;;4.24;100.00
29903;BME280;30288;50.514;9.678;2023-12-20T02:05:43;98482.56;;;4.22;100.00
29903;BME280;30288;50.514;9.678;2023-12-20T02:07:50;98477.59;;;4.22;100.00
29903;BME280;30288;50.514;9.678;2023-12-20T02:09:55;98477.59;;;4.22;100.00
29903;BME280;30288;50.514;9.678;2023-12-20T02:12:02;98482.56;;;4.22;100.00
29903;BME280;30288;50.514;9.678;2023-12-20T02:14:05;98479.22;;;4.23;100.00
29903;BME280;30288;50.514;9.678;2023-12-20T02:16:10;98480.88;;;4.24;100.00
29903;BME280;30288;50.514;9.678;2023-12-20T02:18:14;98476.72;;;4.25;100.00
29903;BME280;30288;50.514;9.678;2023-12-20T02:20:22;98474.22;;;4.23;100.00
29903;BME280;30288;50.514;9.678;2023-12-20T02:22:30;98474.22;;;4.23;100.00
29903;BME280;30288;50.514;9.678;2023-12-20T02:24:36;98479.22;;;4.23;100.00
29903;BME280;30288;50.514;9.678;2023-12-20T02:26:41;98469.97;;;4.37;100.00
29903;BME280;30288;50.514;9.678;2023-12-20T02:28:48;98482.44;;;4.37;100.00
29903;BME280;30288;50.514;9.678;2023-12-20T02:30:53;98480.78;;;4.38;100.00
29903;BME280;30288;50.514;9.678;2023-12-20T02:33:00;98475.78;;;4.39;100.00
29903;BME280;30288;50.514;9.678;2023-12-20T02:35:07;98479.06;;;4.45;100.00
29903;BME280;30288;50.514;9.678;2023-12-20T02:37:12;98474.06;;;4.48;100.00
29903;BME280;30288;50.514;9.678;2023-12-20T02:39:18;98464.03;;;4.54;100.00
29903;BME280;30288;50.514;9.678;2023-12-20T02:41:25;98470.66;;;4.56;100.00
29903;BME280;30288;50.514;9.678;2023-12-20T02:43:30;98465.66;;;4.58;100.00
29903;BME280;30288;50.514;9.678;2023-12-20T02:45:36;98461.50;;;4.57;100.00
29903;BME280;30288;50.514;9.678;2023-12-20T02:47:41;98457.38;;;4.56;100.00
29903;BME280;30288;50.514;9.678;2023-12-20T02:49:47;98454.84;;;4.57;100.00
29903;BME280;30288;50.514;9.678;2023-12-20T02:51:52;98449.09;;;4.54;100.00
29903;BME280;30288;50.514;9.678;2023-12-20T02:53:57;98456.56;;;4.55;100.00
29903;BME280;30288;50.514;9.678;2023-12-20T02:56:06;98455.69;;;4.58;100.00
29903;BME280;30288;50.514;9.678;2023-12-20T02:58:12;98465.66;;;4.58;100.00
29903;BME280;30288;50.514;9.678;2023-12-20T03:00:17;98467.31;;;4.59;100.00
29903;BME280;30288;50.514;9.678;2023-12-20T03:02:25;98460.63;;;4.64;100.00
29903;BME280;30288;50.514;9.678;2023-12-20T03:04:30;98453.94;;;4.66;100.00
29903;BME280;30288;50.514;9.678;2023-12-20T03:06:36;98448.97;;;4.66;100.00
29903;BME280;30288;50.514;9.678;2023-12-20T03:08:41;98458.13;;;4.65;100.00
29903;BME280;30288;50.514;9.678;2023-12-20T03:10:44;98453.16;;;4.65;100.00
29903;BME280;30288;50.514;9.678;2023-12-20T03:12:52;98457.31;;;4.62;100.00
29903;BME280;30288;50.514;9.678;2023-12-20T03:14:57;98467.28;;;4.65;100.00
29903;BME280;30288;50.514;9.678;2023-12-20T03:17:03;98466.47;;;4.61;100.00
29903;BME280;30288;50.514;9.678;2023-12-20T03:19:08;98473.94;;;4.63;100.00
29903;BME280;30288;50.514;9.678;2023-12-20T03:21:14;98463.94;;;4.66;100.00
29903;BME280;30288;50.514;9.678;2023-12-20T03:23:20;98472.28;;;4.65;100.00
29903;BME280;30288;50.514;9.678;2023-12-20T03:25:25;98473.91;;;4.66;100.00
29903;BME280;30288;50.514;9.678;2023-12-20T03:27:31;98472.22;;;4.68;100.00
29903;BME280;30288;50.514;9.678;2023-12-20T03:29:39;98474.72;;;4.68;100.00
29903;BME280;30288;50.514;9.678;2023-12-20T03:31:44;98472.22;;;4.68;100.00
29903;BME280;30288;50.514;9.678;2023-12-20T03:33:48;98462.25;;;4.68;100.00
29903;BME280;30288;50.514;9.678;2023-12-20T03:35:55;98462.25;;;4.68;100.00
29903;BME280;30288;50.514;9.678;2023-12-20T03:38:00;98461.38;;;4.72;100.00
29903;BME280;30288;50.514;9.678;2023-12-20T03:40:07;98468.91;;;4.69;100.00
29903;BME280;30288;50.514;9.678;2023-12-20T03:42:13;98470.56;;;4.67;100.00
29903;BME280;30288;50.514;9.678;2023-12-20T03:44:21;98467.28;;;4.65;100.00
29903;BME280;30288;50.514;9.678;2023-12-20T03:46:29;98472.28;;;4.65;100.00
29903;BME280;30288;50.514;9.678;2023-12-20T03:48:32;98467.28;;;4.65;100.00
29903;BME280;30288;50.514;9.678;2023-12-20T03:50:37;98471.44;;;4.64;100.00
29903;BME280;30288;50.514;9.678;2023-12-20T03:52:43;98473.09;;;4.62;100.00
29903;BME280;30288;50.514;9.678;2023-12-20T03:54:45;98464.84;;;4.60;100.00
29903;BME280;30288;50.514;9.678;2023-12-20T03:56:51;98469.00;;;4.58;100.00
29903;BME280;30288;50.514;9.678;2023-12-20T03:58:56;98473.97;;;4.58;100.00
29903;BME280;30288;50.514;9.678;2023-12-20T04:01:01;98481.47;;;4.57;100.00
29903;BME280;30288;50.514;9.678;2023-12-20T04:03:10;98473.97;;;4.57;100.00
29903;BME280;30288;50.514;9.678;2023-12-20T04:05:17;98473.97;;;4.60;100.00
29903;BME280;30288;50.514;9.678;2023-12-20T04:07:23;98475.63;;;4.61;100.00
29903;BME280;30288;50.514;9.678;2023-12-20T04:09:26;98484.75;;;4.62;100.00
29903;BME280;30288;50.514;9.678;2023-12-20T04:11:31;98482.16;;;4.72;100.00
29903;BME280;30288;50.514;9.678;2023-12-20T04:13:36;98483.81;;;4.75;100.00
29903;BME280;30288;50.514;9.678;2023-12-20T04:15:41;98495.44;;;4.79;100.00
29903;BME280;30288;50.514;9.678;2023-12-20T04:17:47;98494.59;;;4.77;100.00
29903;BME280;30288;50.514;9.678;2023-12-20T04:19:54;98496.31;;;4.73;100.00
29903;BME280;30288;50.514;9.678;2023-12-20T04:22:00;98490.47;;;4.73;100.00
29903;BME280;30288;50.514;9.678;2023-12-20T04:24:06;98493.81;;;4.75;100.00
29903;BME280;30288;50.514;9.678;2023-12-20T04:26:13;98495.50;;;4.67;100.00
29903;BME280;30288;50.514;9.678;2023-12-20T04:28:18;98488.88;;;4.66;100.00
29903;BME280;30288;50.514;9.678;2023-12-20T04:30:23;98497.22;;;4.62;100.00
29903;BME280;30288;50.514;9.678;2023-12-20T04:32:26;98498.91;;;4.60;100.00
29903;BME280;30288;50.514;9.678;2023-12-20T04:34:31;98502.25;;;4.59;100.00
29903;BME280;30288;50.514;9.678;2023-12-20T04:36:39;98499.00;;;4.51;100.00
29903;BME280;30288;50.514;9.678;2023-12-20T04:38:44;98505.72;;;4.39;100.00
29903;BME280;30288;50.514;9.678;2023-12-20T04:40:49;98497.47;;;4.31;100.00
29903;BME280;30288;50.514;9.678;2023-12-20T04:42:55;98497.50;;;4.25;100.00
29903;BME280;30288;50.514;9.678;2023-12-20T04:45:01;98504.19;;;4.14;100.00
29903;BME280;30288;50.514;9.678;2023-12-20T04:47:03;98503.44;;;4.05;100.00
29903;BME280;30288;50.514;9.678;2023-12-20T04:49:09;98501.84;;;3.90;100.00
29903;BME280;30288;50.514;9.678;2023-12-20T04:51:14;98506.03;;;3.82;100.00
29903;BME280;30288;50.514;9.678;2023-12-20T04:53:22;98506.06;;;3.77;100.00
29903;BME280;30288;50.514;9.678;2023-12-20T04:55:28;98514.38;;;3.72;100.00
29903;BME280;30288;50.514;9.678;2023-12-20T04:57:33;98519.41;;;3.63;100.00
29903;BME280;30288;50.514;9.678;2023-12-20T04:59:39;98518.63;;;3.56;100.00
29903;BME280;30288;50.514;9.678;2023-12-20T05:01:44;98517.81;;;3.45;100.00
29903;BME280;30288;50.514;9.678;2023-12-20T05:03:52;98524.44;;;3.50;100.00
29903;BME280;30288;50.514;9.678;2023-12-20T05:05:57;98526.09;;;3.55;100.00
29903;BME280;30288;50.514;9.678;2023-12-20T05:08:03;98529.38;;;3.63;100.00
29903;BME280;30288;50.514;9.678;2023-12-20T05:10:12;98526.88;;;3.69;100.00
29903;BME280;30288;50.514;9.678;2023-12-20T05:12:17;98534.31;;;3.73;100.00
29903;BME280;30288;50.514;9.678;2023-12-20T05:14:22;98532.66;;;3.74;100.00
29903;BME280;30288;50.514;9.678;2023-12-20T05:16:28;98537.56;;;3.87;100.00
29903;BME280;30288;50.514;9.678;2023-12-20T05:18:34;98536.75;;;3.87;100.00
29903;BME280;30288;50.514;9.678;2023-12-20T05:20:40;98542.50;;;3.98;100.00
29903;BME280;30288;50.514;9.678;2023-12-20T05:22:46;98537.53;;;3.95;100.00
29903;BME280;30288;50.514;9.678;2023-12-20T05:24:51;98539.22;;;3.90;100.00
29903;BME280;30288;50.514;9.678;2023-12-20T05:26:59;98539.22;;;3.87;100.00
29903;BME280;30288;50.514;9.678;2023-12-20T05:29:05;98537.56;;;3.86;100.00
29903;BME280;30288;50.514;9.678;2023-12-20T05:31:10;98540.91;;;3.82;100.00
29903;BME280;30288;50.514;9.678;2023-12-20T05:33:16;98531.00;;;3.70;100.00
29903;BME280;30288;50.514;9.678;2023-12-20T05:35:21;98536.84;;;3.57;100.00
29903;BME280;30288;50.514;9.678;2023-12-20T05:37:28;98546.88;;;3.37;100.00
29903;BME280;30288;50.514;9.678;2023-12-20T05:39:33;98557.69;;;3.31;100.00
29903;BME280;30288;50.514;9.678;2023-12-20T05:41:38;98565.97;;;3.24;100.00
29903;BME280;30288;50.514;9.678;2023-12-20T05:43:47;98566.81;;;3.09;100.00
29903;BME280;30288;50.514;9.678;2023-12-20T05:45:52;98566.81;;;3.09;100.00
29903;BME280;30288;50.514;9.678;2023-12-20T05:47:57;98571.81;;;3.03;100.00
29903;BME280;30288;50.514;9.678;2023-12-20T05:50:03;98577.59;;;2.86;100.00
29903;BME280;30288;50.514;9.678;2023-12-20T05:52:11;98582.59;;;2.74;100.00
29903;BME280;30288;50.514;9.678;2023-12-20T05:54:17;98577.59;;;2.68;100.00
29903;BME280;30288;50.514;9.678;2023-12-20T05:56:23;98577.63;;;2.71;100.00
29903;BME280;30288;50.514;9.678;2023-12-20T05:58:25;98582.59;;;2.83;100.00
29903;BME280;30288;50.514;9.678;2023-12-20T06:00:34;98574.28;;;2.96;100.00
29903;BME280;30288;50.514;9.678;2023-12-20T06:02:40;98575.97;;;2.94;100.00
29903;BME280;30288;50.514;9.678;2023-12-20T06:04:45;98583.44;;;2.98;100.00
29903;BME280;30288;50.514;9.678;2023-12-20T06:06:49;98583.41;;;2.88;100.00
29903;BME280;30288;50.514;9.678;2023-12-20T06:08:54;98585.91;;;2.79;100.00
29903;BME280;30288;50.514;9.678;2023-12-20T06:10:59;98582.59;;;2.78;100.00
29903;BME280;30288;50.514;9.678;2023-12-20T06:13:05;98582.59;;;2.80;100.00
29903;BME280;30288;50.514;9.678;2023-12-20T06:15:11;98582.59;;;2.83;100.00
29903;BME280;30288;50.514;9.678;2023-12-20T06:17:19;98585.91;;;2.79;100.00
29903;BME280;30288;50.514;9.678;2023-12-20T06:19:24;98579.25;;;2.72;100.00
29903;BME280;30288;50.514;9.678;2023-12-20T06:21:29;98582.59;;;2.71;100.00
29903;BME280;30288;50.514;9.678;2023-12-20T06:23:37;98582.59;;;2.71;100.00
29903;BME280;30288;50.514;9.678;2023-12-20T06:25:42;98587.53;;;2.61;100.00
29903;BME280;30288;50.514;9.678;2023-12-20T06:27:47;98594.97;;;2.54;100.00
29903;BME280;30288;50.514;9.678;2023-12-20T06:29:52;98593.31;;;2.48;100.00
29903;BME280;30288;50.514;9.678;2023-12-20T06:31:57;98593.31;;;2.45;100.00
29903;BME280;30288;50.514;9.678;2023-12-20T06:34:05;98602.41;;;2.34;100.00
29903;BME280;30288;50.514;9.678;2023-12-20T06:36:12;98603.22;;;2.35;100.00
29903;BME280;30288;50.514;9.678;2023-12-20T06:38:18;98600.72;;;2.30;100.00
29903;BME280;30288;50.514;9.678;2023-12-20T06:40:24;98602.34;;;2.17;100.00
29903;BME280;30288;50.514;9.678;2023-12-20T06:42:29;98597.38;;;2.16;100.00
29903;BME280;30288;50.514;9.678;2023-12-20T06:44:44;98601.50;;;2.12;100.00
29903;BME280;30288;50.514;9.678;2023-12-20T06:46:50;98599.84;;;2.19;100.00
29903;BME280;30288;50.514;9.678;2023-12-20T06:48:55;98602.41;;;2.31;100.00
29903;BME280;30288;50.514;9.678;2023-12-20T06:51:04;98605.69;;;2.30;100.00
29903;BME280;30288;50.514;9.678;2023-12-20T06:53:09;98609.00;;;2.29;100.00
29903;BME280;30288;50.514;9.678;2023-12-20T06:55:17;98605.72;;;2.39;100.00
29903;BME280;30288;50.514;9.678;2023-12-20T06:57:22;98610.72;;;2.57;100.00
29903;BME280;30288;50.514;9.678;2023-12-20T06:59:28;98611.56;;;2.58;100.00
29903;BME280;30288;50.514;9.678;2023-12-20T07:01:34;98610.75;;;2.70;100.00
29903;BME280;30288;50.514;9.678;2023-12-20T07:03:40;98606.63;;;2.79;100.00
29903;BME280;30288;50.514;9.678;2023-12-20T07:05:43;98611.59;;;2.87;100.00
29903;BME280;30288;50.514;9.678;2023-12-20T07:07:51;98614.09;;;3.05;100.00
29903;BME280;30288;50.514;9.678;2023-12-20T07:09:56;98608.28;;;2.97;100.00
29903;BME280;30288;50.514;9.678;2023-12-20T07:12:03;98602.47;;;3.12;100.00
29903;BME280;30288;50.514;9.678;2023-12-20T07:14:08;98602.47;;;3.05;100.00
29903;BME280;30288;50.514;9.678;2023-12-20T07:16:13;98606.63;;;3.09;100.00
29903;BME280;30288;50.514;9.678;2023-12-20T07:18:19;98609.13;;;3.02;100.00
29903;BME280;30288;50.514;9.678;2023-12-20T07:20:24;98610.75;;;3.04;100.00
29903;BME280;30288;50.514;9.678;2023-12-20T07:22:30;98609.09;;;3.00;100.00
29903;BME280;30288;50.514;9.678;2023-12-20T07:24:39;98605.81;;;2.97;100.00
29903;BME280;30288;50.514;9.678;2023-12-20T07:26:44;98616.59;;;3.13;100.00
29903;BME280;30288;50.514;9.678;2023-12-20T07:28:49;98617.41;;;3.16;100.00
29903;BME280;30288;50.514;9.678;2023-12-20T07:30:55;98620.72;;;3.27;100.00
29903;BME280;30288;50.514;9.678;2023-12-20T07:33:00;98629.00;;;3.29;100.00
29903;BME280;30288;50.514;9.678;2023-12-20T07:35:07;98631.50;;;3.26;100.00
29903;BME280;30288;50.514;9.678;2023-12-20T07:37:15;98633.16;;;3.29;100.00
29903;BME280;30288;50.514;9.678;2023-12-20T07:39:20;98625.69;;;3.30;100.00
29903;BME280;30288;50.514;9.678;2023-12-20T07:41:31;98627.34;;;3.34;100.00
29903;BME280;30288;50.514;9.678;2023-12-20T07:43:36;98633.13;;;3.38;100.00
29903;BME280;30288;50.514;9.678;2023-12-20T07:45:42;98627.34;;;3.49;100.00
29903;BME280;30288;50.514;9.678;2023-12-20T07:47:44;98624.03;;;3.50;100.00
29903;BME280;30288;50.514;9.678;2023-12-20T07:49:51;98624.00;;;3.60;100.00
29903;BME280;30288;50.514;9.678;2023-12-20T07:51:56;98621.50;;;3.60;100.00
29903;BME280;30288;50.514;9.678;2023-12-20T07:54:02;98615.69;;;3.64;100.00
29903;BME280;30288;50.514;9.678;2023-12-20T07:56:14;98623.13;;;3.73;100.00
29903;BME280;30288;50.514;9.678;2023-12-20T07:58:23;98629.78;;;3.74;100.00
29903;BME280;30288;50.514;9.678;2023-12-20T08:00:42;98639.75;;;3.75;100.00
29903;BME280;30288;50.514;9.678;2023-12-20T08:02:48;98640.53;;;3.82;100.00
29903;BME280;30288;50.514;9.678;2023-12-20T08:04:55;98633.88;;;3.87;100.00
29903;BME280;30288;50.514;9.678;2023-12-20T08:06:58;98640.50;;;3.91;100.00
29903;BME280;30288;50.514;9.678;2023-12-20T08:09:03;98637.19;;;3.90;100.00
29903;BME280;30288;50.514;9.678;2023-12-20T08:11:09;98645.53;;;3.88;100.00
29903;BME280;30288;50.514;9.678;2023-12-20T08:13:11;98644.66;;;3.90;100.00
29903;BME280;30288;50.514;9.678;2023-12-20T08:15:19;98655.47;;;3.94;100.00
29903;BME280;30288;50.514;9.678;2023-12-20T08:17:24;98646.31;;;3.94;100.00
29903;BME280;30288;50.514;9.678;2023-12-20T08:19:30;98650.50;;;3.94;100.00
29903;BME280;30288;50.514;9.678;2023-12-20T08:21:35;98663.75;;;3.99;100.00
29903;BME280;30288;50.514;9.678;2023-12-20T08:23:40;98665.41;;;4.03;100.00
29903;BME280;30288;50.514;9.678;2023-12-20T08:25:45;98658.72;;;4.13;100.00
29903;BME280;30288;50.514;9.678;2023-12-20T08:27:50;98660.34;;;4.18;100.00
29903;BME280;30288;50.514;9.678;2023-12-20T08:29:56;98655.34;;;4.24;100.00
29903;BME280;30288;50.514;9.678;2023-12-20T08:32:04;98656.97;;;4.34;100.00
29903;BME280;30288;50.514;9.678;2023-12-20T08:34:10;98643.69;;;4.28;100.00
29903;BME280;30288;50.514;9.678;2023-12-20T08:36:15;98656.97;;;4.34;100.00
29903;BME280;30288;50.514;9.678;2023-12-20T08:38:20;98656.13;;;4.32;100.00
29903;BME280;30288;50.514;9.678;2023-12-20T08:40:25;98649.53;;;4.31;100.00
29903;BME280;30288;50.514;9.678;2023-12-20T08:42:31;98651.97;;;4.33;100.00
29903;BME280;30288;50.514;9.678;2023-12-20T08:44:37;98656.13;;;4.42;100.00
29903;BME280;30288;50.514;9.678;2023-12-20T08:46:43;98661.91;;;4.50;100.00
29903;BME280;30288;50.514;9.678;2023-12-20T08:48:51;98666.91;;;4.47;100.00
29903;BME280;30288;50.514;9.678;2023-12-20T08:50:57;98665.19;;;4.53;100.00
29903;BME280;30288;50.514;9.678;2023-12-20T08:53:03;98655.22;;;4.55;100.00
29903;BME280;30288;50.514;9.678;2023-12-20T08:55:09;98658.53;;;4.58;100.00
29903;BME280;30288;50.514;9.678;2023-12-20T08:57:13;98665.13;;;4.67;100.00
29903;BME280;30288;50.514;9.678;2023-12-20T08:59:18;98665.94;;;4.66;100.00
29903;BME280;30288;50.514;9.678;2023-12-20T09:01:24;98658.47;;;4.69;100.00
29903;BME280;30288;50.514;9.678;2023-12-20T09:03:30;98667.59;;;4.71;100.00
29903;BME280;30288;50.514;9.678;2023-12-20T09:05:38;98658.44;;;4.75;100.00
29903;BME280;30288;50.514;9.678;2023-12-20T09:07:43;98650.94;;;4.76;100.00
29903;BME280;30288;50.514;9.678;2023-12-20T09:09:48;98656.75;;;4.77;100.00
29903;BME280;30288;50.514;9.678;2023-12-20T09:11:54;98663.44;;;4.75;100.00
29903;BME280;30288;50.514;9.678;2023-12-20T09:13:59;98658.44;;;4.75;100.00
29903;BME280;30288;50.514;9.678;2023-12-20T09:16:06;98660.06;;;4.76;100.00
29903;BME280;30288;50.514;9.678;2023-12-20T09:18:11;98665.94;;;4.73;100.00
29903;BME280;30288;50.514;9.678;2023-12-20T09:20:16;98666.75;;;4.71;100.00
29903;BME280;30288;50.514;9.678;2023-12-20T09:22:25;98664.22;;;4.75;100.00
29903;BME280;30288;50.514;9.678;2023-12-20T09:24:30;98658.38;;;4.82;100.00
29903;BME280;30288;50.514;9.678;2023-12-20T09:26:36;98658.34;;;4.87;100.00
29903;BME280;30288;50.514;9.678;2023-12-20T09:28:42;98656.72;;;4.83;100.00
29903;BME280;30288;50.514;9.678;2023-12-20T09:30:44;98659.25;;;4.77;100.00
29903;BME280;30288;50.514;9.678;2023-12-20T09:32:52;98660.94;;;4.73;100.00
29903;BME280;30288;50.514;9.678;2023-12-20T09:34:57;98651.78;;;4.74;100.00
29903;BME280;30288;50.514;9.678;2023-12-20T09:37:04;98655.09;;;4.76;100.00
29903;BME280;30288;50.514;9.678;2023-12-20T09:39:13;98651.72;;;4.80;100.00
29903;BME280;30288;50.514;9.678;2023-12-20T09:41:21;98658.38;;;4.84;100.00
29903;BME280;30288;50.514;9.678;2023-12-20T09:43:29;98658.31;;;4.90;100.00
29903;BME280;30288;50.514;9.678;2023-12-20T09:45:35;98655.00;;;4.91;100.00
29903;BME280;30288;50.514;9.678;2023-12-20T09:47:41;98659.19;;;4.86;100.00
29903;BME280;30288;50.514;9.678;2023-12-20T09:49:47;98653.38;;;4.87;100.00
29903;BME280;30288;50.514;9.678;2023-12-20T09:51:54;98667.50;;;4.87;100.00
29903;BME280;30288;50.514;9.678;2023-12-20T09:54:00;98664.13;;;4.95;100.00
29903;BME280;30288;50.514;9.678;2023-12-20T09:56:11;98664.97;;;4.94;100.00
29903;BME280;30288;50.514;9.678;2023-12-20T09:58:17;98656.63;;;4.95;100.00
29903;BME280;30288;50.514;9.678;2023-12-20T10:00:22;98648.34;;;4.93;100.00
29903;BME280;30288;50.514;9.678;2023-12-20T10:02:29;98649.16;;;4.92;100.00
29903;BME280;30288;50.514;9.678;2023-12-20T10:04:36;98659.16;;;4.92;100.00
29903;BME280;30288;50.514;9.678;2023-12-20T10:06:42;98654.97;;;4.97;100.00
29903;BME280;30288;50.514;9.678;2023-12-20T10:08:48;98641.66;;;4.95;100.00
29903;BME280;30288;50.514;9.678;2023-12-20T10:10:54;98640.03;;;4.94;100.00
29903;BME280;30288;50.514;9.678;2023-12-20T10:13:10;98646.63;;;5.01;100.00
29903;BME280;30288;50.514;9.678;2023-12-20T10:15:16;98642.50;;;4.96;100.00
29903;BME280;30288;50.514;9.678;2023-12-20T10:17:22;98650.00;;;4.94;100.00
29903;BME280;30288;50.514;9.678;2023-12-20T10:19:31;98647.47;;;4.96;100.00
29903;BME280;30288;50.514;9.678;2023-12-20T10:21:37;98649.94;;;5.00;100.00
29903;BME280;30288;50.514;9.678;2023-12-20T10:23:42;98637.50;;;4.96;100.00
29903;BME280;30288;50.514;9.678;2023-12-20T10:25:56;98626.69;;;4.95;100.00
29903;BME280;30288;50.514;9.678;2023-12-20T10:28:15;98624.16;;;5.01;100.00
29903;BME280;30288;50.514;9.678;2023-12-20T10:30:24;98618.28;;;5.08;100.00
29903;BME280;30288;50.514;9.678;2023-12-20T10:32:29;98624.88;;;5.15;100.00
29903;BME280;30288;50.514;9.678;2023-12-20T10:34:35;98619.84;;;5.18;100.00
29903;BME280;30288;50.514;9.678;2023-12-20T10:36:41;98608.19;;;5.20;100.00
29903;BME280;30288;50.514;9.678;2023-12-20T10:38:46;98599.88;;;5.18;100.00
29903;BME280;30288;50.514;9.678;2023-12-20T10:40:57;98607.28;;;5.29;100.00
29903;BME280;30288;50.514;9.678;2023-12-20T10:43:04;98608.88;;;5.36;100.00
29903;BME280;30288;50.514;9.678;2023-12-20T10:45:13;98607.09;;;5.49;100.00
29903;BME280;30288;50.514;9.678;2023-12-20T10:47:20;98602.78;;;5.61;100.00
29903;BME280;30288;50.514;9.678;2023-12-20T10:49:30;98596.03;;;5.71;100.00
29903;BME280;30288;50.514;9.678;2023-12-20T10:51:38;98605.25;;;5.67;100.00
29903;BME280;30288;50.514;9.678;2023-12-20T10:53:44;98595.97;;;5.77;100.00
29903;BME280;30288;50.514;9.678;2023-12-20T10:55:53;98596.13;;;5.65;100.00
29903;BME280;30288;50.514;9.678;2023-12-20T10:58:03;98601.84;;;5.73;100.00
29903;BME280;30288;50.514;9.678;2023-12-20T11:00:17;98600.13;;;5.77;100.00
29903;BME280;30288;50.514;9.678;2023-12-20T11:02:23;98589.25;;;5.82;100.00
29903;BME280;30288;50.514;9.678;2023-12-20T11:04:39;98587.56;;;5.87;100.00
29903;BME280;30288;50.514;9.678;2023-12-20T11:06:53;98585.88;;;5.86;100.00